Hauptseite
METAR-TAF:

METAR-TAF

Flughäfen :

Flughafen Ouagadougou

Ouagadougou, Burkina Faso

Breite: 12-21N, Länge: 001-31W, Höhe: 316 m

Beobachtung

Neuester Wetterbericht von vor 55 Minuten, um 04:00 UTC
Wind 3 kt aus Nordost
Temperatur 19°C
Luftfeuchtigkeit 26%
Luftdruck 1013 hPa
Sichtweite 10 km oder mehr
keine Wolken unter 1500 m und keine Kumulonimbus oder Gewitterwolken

METAR: DFFD 160400Z 05003KT CAVOK 19/M01 Q1013 NOSIG

Zeit: 04:55 (04:55 UTC)

Prognose

Neuester Wetterbericht von vor 5 Stunden und 55 Minuten, um 23:00 UTC
Gültige Prognose vom 16 um 00 UTC bis 17 um 06 UTC
Wind 8 kt aus Ost/Nordost
Sichtweite: 8000 m
Zeitweise
vom 16 um 06 UTC bis 16 um 10 UTC
Sichtweite: 4000 m
trockener Dunst

TAF: DFFD 152300Z 1600/1706 06008KT 8000 NSC TEMPO 1606/1610 4000 HZ

Wetterbeobachtungen und Prognosen von mehr als 4000 Flughäfen (METAR und TAF Bericht).

Die verfügbaren Stationen werden durch gelbe und rote Markierungen auf der Karte dargestellt.

Führen Sie die Maus auf sie, um den Namen der Station zu sehen.

Darauf klicken, um die Beobachtung von Wetterbeobachtungen und Prognosen zu sehen.

Um die Karte zu ändern : klicken Sie auf den grünen Tasten mit einem schwarzen Kreuz Zum Vergrößern, auf den grünen Button mit einem Gedankenstrich zu verkleinern, oder auf die grünen Pfeile für benachbarte Karten.


METAR-TAF: